Time;durP1;ratioP1;P1;durP2;ratioP2;P2;SDS_P1;SDS_P2;PMS_P1;PMS_P2;Temp;Humidity;BMP_temperature;BMP_pressure;BME280_temperature;BME280_humidity;BME280_pressure;Samples;Min_cycle;Max_cycle;Signal;HPM_P1;HPM_P2
2022/01/06 00:01:52;;;;;;;1.17;1.03;;;;;;;;;;5124762;28;20481;-80
2022/01/06 00:04:20;;;;;;;2.30;0.53;;;5.50;1.00;;;;;;5124916;27;20467;-80
2022/01/06 00:06:48;;;;;;;0.50;0.10;;;5.40;1.00;;;;;;5124012;28;20473;-80
2022/01/06 00:09:18;;;;;;;0.90;0.50;;;;;;;;;;5121619;28;20571;-79
2022/01/06 00:11:46;;;;;;;1.47;0.60;;;5.50;1.00;;;;;;5123227;28;20584;-80
2022/01/06 00:14:21;;;;;;;0.50;0.10;;;5.50;1.00;;;;;;5121097;28;20449;-80
2022/01/06 00:17:04;;;;;;;2.23;0.83;;;5.50;1.00;;;;;;5124158;28;20433;-80
2022/01/06 00:25:12;;;;;;;0.60;0.40;;;5.50;1.00;;;;;;5122036;28;20472;-80
2022/01/06 00:27:40;;;;;;;1.13;0.53;;;5.50;1.00;;;;;;5123992;28;20453;-79
2022/01/06 00:30:10;;;;;;;0.70;0.67;;;5.50;1.00;;;;;;5123772;28;20456;-78
2022/01/06 00:32:39;;;;;;;0.50;0.20;;;5.60;1.00;;;;;;5124401;28;21019;-80
2022/01/06 00:35:07;;;;;;;0.50;0.10;;;6.30;1.00;;;;;;5123456;28;20442;-80
2022/01/06 00:37:35;;;;;;;0.50;0.10;;;5.60;1.00;;;;;;5133473;28;20434;-79
2022/01/06 00:40:04;;;;;;;0.50;0.10;;;5.60;1.00;;;;;;5133623;28;20445;-79
2022/01/06 00:42:32;;;;;;;0.80;0.43;;;5.70;1.00;;;;;;5120897;28;20462;-79
2022/01/06 00:44:59;;;;;;;0.67;0.30;;;5.60;1.00;;;;;;5119814;28;20508;-79
2022/01/06 00:47:28;;;;;;;0.73;0.73;;;;;;;;;;5122486;28;20455;-80
2022/01/06 00:50:00;;;;;;;0.80;0.40;;;5.60;1.00;;;;;;5121550;28;20437;-79
2022/01/06 00:52:28;;;;;;;0.50;0.20;;;5.60;1.00;;;;;;5122259;28;21061;-79
2022/01/06 00:54:56;;;;;;;1.07;1.03;;;5.60;1.00;;;;;;5122769;28;20551;-80
2022/01/06 00:57:24;;;;;;;0.50;0.20;;;5.60;1.00;;;;;;5120260;28;20777;-78
2022/01/06 00:59:52;;;;;;;3.33;1.57;;;5.60;1.00;;;;;;5124111;28;20449;-80
2022/01/06 01:02:20;;;;;;;0.77;0.77;;;5.60;1.00;;;;;;5124827;28;20491;-80
2022/01/06 01:04:48;;;;;;;0.50;0.10;;;5.60;1.00;;;;;;5136149;27;20479;-79
2022/01/06 01:07:18;;;;;;;0.50;0.10;;;5.70;1.00;;;;;;5141144;27;20484;-80
2022/01/06 01:09:46;;;;;;;0.50;0.10;;;5.70;1.00;;;;;;5137130;27;20922;-79
2022/01/06 01:12:14;;;;;;;0.50;0.10;;;5.70;1.00;;;;;;5136784;27;20537;-79
2022/01/06 01:14:53;;;;;;;0.50;0.10;;;5.70;1.00;;;;;;5139891;27;20443;-77
2022/01/06 01:17:24;;;;;;;0.50;0.20;;;5.70;1.00;;;;;;5140693;27;20531;-79
2022/01/06 01:19:53;;;;;;;0.50;0.20;;;5.70;1.00;;;;;;5141558;27;20437;-78
2022/01/06 01:22:22;;;;;;;1.17;1.17;;;5.60;1.00;;;;;;5140821;27;20484;-78
2022/01/06 01:24:50;;;;;;;0.50;0.30;;;5.60;1.00;;;;;;5130948;27;20518;-79
2022/01/06 01:27:21;;;;;;;0.50;0.10;;;5.60;1.00;;;;;;5118882;28;20451;-79
2022/01/06 01:29:58;;;;;;;0.77;0.47;;;5.60;1.00;;;;;;5119354;28;20455;-79
2022/01/06 01:32:31;;;;;;;0.80;0.50;;;5.60;1.00;;;;;;5121393;28;20898;-79
2022/01/06 01:35:01;;;;;;;0.70;0.43;;;5.60;1.00;;;;;;5132027;27;20444;-80
2022/01/06 01:37:32;;;;;;;0.60;0.20;;;5.60;1.00;;;;;;5146849;27;20453;-79
2022/01/06 01:40:00;;;;;;;0.60;0.30;;;5.50;1.00;;;;;;5138861;27;20439;-79
2022/01/06 01:42:28;;;;;;;0.50;0.10;;;5.50;1.00;;;;;;5147993;27;20467;-79
2022/01/06 01:44:57;;;;;;;0.50;0.10;;;5.50;1.00;;;;;;5127833;27;21100;-79
2022/01/06 01:47:30;;;;;;;0.50;0.10;;;5.50;1.00;;;;;;5119220;27;20517;-79
2022/01/06 01:50:11;;;;;;;0.50;0.20;;;5.50;1.00;;;;;;5118447;28;20509;-79
2022/01/06 01:52:43;;;;;;;0.50;0.10;;;5.40;1.00;;;;;;5117542;28;20471;-79
2022/01/06 01:55:14;;;;;;;0.60;0.30;;;5.40;1.00;;;;;;5115199;27;20446;-79
2022/01/06 01:57:42;;;;;;;0.50;0.20;;;5.40;1.00;;;;;;5114435;28;20447;-77
2022/01/06 02:00:13;;;;;;;0.90;0.70;;;5.40;1.00;;;;;;5116972;28;20967;-79
2022/01/06 02:02:41;;;;;;;0.50;0.10;;;5.40;1.00;;;;;;5116733;28;20556;-79
2022/01/06 02:05:10;;;;;;;0.50;0.10;;;5.40;1.00;;;;;;5132820;27;20978;-80
2022/01/06 02:07:41;;;;;;;0.50;0.10;;;5.40;1.00;;;;;;5137686;27;20437;-79
2022/01/06 02:10:12;;;;;;;0.50;0.10;;;5.40;1.00;;;;;;5139117;27;20452;-79
2022/01/06 02:12:42;;;;;;;0.50;0.10;;;5.50;1.00;;;;;;5138508;27;20544;-79
2022/01/06 02:15:11;;;;;;;0.50;0.10;;;5.50;1.00;;;;;;5120511;27;20461;-79
2022/01/06 02:17:44;;;;;;;0.50;0.10;;;5.60;1.00;;;;;;5117028;27;20487;-79
2022/01/06 02:20:16;;;;;;;0.50;0.10;;;5.60;1.00;;;;;;5123575;27;20441;-77
2022/01/06 02:22:45;;;;;;;0.70;0.67;;;5.70;1.00;;;;;;5115557;28;20491;-78
2022/01/06 02:25:15;;;;;;;0.50;0.20;;;5.70;1.00;;;;;;5115375;27;20567;-79
2022/01/06 02:27:46;;;;;;;0.50;0.10;;;5.70;1.00;;;;;;5114080;28;20954;-78
2022/01/06 02:30:14;;;;;;;0.50;0.10;;;;;;;;;;5114419;28;20447;-78
2022/01/06 02:32:42;;;;;;;0.50;0.10;;;5.70;1.00;;;;;;5114966;28;20454;-79
2022/01/06 02:35:13;;;;;;;1.47;1.23;;;5.70;1.00;;;;;;5117365;28;20445;-79
2022/01/06 02:37:42;;;;;;;0.50;0.10;;;5.70;1.00;;;;;;5119807;28;20445;-79
2022/01/06 02:40:11;;;;;;;0.50;0.10;;;5.70;1.00;;;;;;5116383;28;20443;-79
2022/01/06 02:42:45;;;;;;;0.50;0.10;;;5.80;1.00;;;;;;5114460;28;20466;-78
2022/01/06 02:45:13;;;;;;;0.50;0.10;;;5.80;1.00;;;;;;5114461;28;20500;-78
2022/01/06 02:47:41;;;;;;;0.50;0.10;;;5.80;1.00;;;;;;5115776;28;20487;-78
2022/01/06 02:50:11;;;;;;;0.50;0.10;;;5.80;1.00;;;;;;5120440;28;20456;-79
2022/01/06 02:52:40;;;;;;;0.50;0.10;;;5.80;1.00;;;;;;5121268;28;20564;-78
2022/01/06 02:55:12;;;;;;;0.50;0.10;;;5.80;1.00;;;;;;5118569;28;20458;-78
2022/01/06 02:57:40;;;;;;;0.50;0.10;;;5.80;1.00;;;;;;5117866;28;20965;-79
2022/01/06 03:00:10;;;;;;;0.50;0.10;;;5.80;1.00;;;;;;5115797;28;20454;-78
2022/01/06 03:02:41;;;;;;;2.37;2.10;;;5.90;1.00;;;;;;5117428;28;20481;-79
2022/01/06 03:05:09;;;;;;;0.50;0.10;;;5.80;1.00;;;;;;5115518;28;20437;-79
2022/01/06 03:07:38;;;;;;;0.50;0.10;;;;;;;;;;5115928;28;20444;-79
2022/01/06 03:10:11;;;;;;;1.13;0.87;;;5.90;1.00;;;;;;5116150;28;20517;-79
2022/01/06 03:12:40;;;;;;;0.50;0.10;;;5.80;1.00;;;;;;5118523;28;20461;-80
2022/01/06 03:15:10;;;;;;;0.53;0.30;;;5.80;1.00;;;;;;5117780;28;20609;-78
2022/01/06 03:17:39;;;;;;;0.50;0.10;;;5.80;1.00;;;;;;5118402;28;20862;-78
2022/01/06 03:20:10;;;;;;;0.50;0.10;;;5.70;1.00;;;;;;5118523;28;20828;-79
2022/01/06 03:22:38;;;;;;;0.50;0.10;;;;;;;;;;5127480;22;20511;-73
2022/01/06 03:25:10;;;;;;;0.50;0.10;;;5.70;1.00;;;;;;5109508;28;20441;-74
2022/01/06 03:27:37;;;;;;;0.50;0.10;;;5.80;1.00;;;;;;5108471;28;20477;-73
2022/01/06 03:30:08;;;;;;;0.50;0.10;;;5.80;1.00;;;;;;5121065;28;20468;-74
2022/01/06 03:32:36;;;;;;;0.50;0.10;;;5.90;1.00;;;;;;5120106;28;20974;-73
2022/01/06 03:35:06;;;;;;;0.50;0.10;;;5.90;1.00;;;;;;5101588;28;20445;-73
2022/01/06 03:37:34;;;;;;;0.60;0.40;;;5.90;1.00;;;;;;5097021;28;20796;-75
2022/01/06 03:40:04;;;;;;;0.50;0.10;;;5.80;1.00;;;;;;5100606;28;20444;-73
2022/01/06 03:42:34;;;;;;;0.50;0.10;;;5.70;1.00;;;;;;5098216;28;20474;-72
2022/01/06 03:45:05;;;;;;;0.50;0.10;;;5.60;1.00;;;;;;5095444;28;20537;-74
2022/01/06 03:47:33;;;;;;;0.50;0.10;;;5.60;1.00;;;;;;5095816;28;20558;-74
2022/01/06 03:50:01;;;;;;;1.33;0.50;;;5.60;1.00;;;;;;5098297;28;20450;-74
2022/01/06 03:52:29;;;;;;;2.20;1.73;;;5.60;1.00;;;;;;5101328;28;20505;-74
2022/01/06 03:54:56;;;;;;;0.50;0.10;;;5.60;1.00;;;;;;5095293;28;20449;-74
2022/01/06 03:57:24;;;;;;;0.50;0.10;;;5.60;1.00;;;;;;5095748;28;20537;-74
2022/01/06 03:59:53;;;;;;;0.50;0.20;;;5.60;1.00;;;;;;5096975;28;20457;-73
2022/01/06 04:02:21;;;;;;;0.50;0.10;;;5.60;1.00;;;;;;5095048;28;20550;-74
2022/01/06 04:04:49;;;;;;;0.50;0.30;;;5.60;1.00;;;;;;5094812;28;20446;-73
2022/01/06 04:07:17;;;;;;;0.50;0.10;;;5.50;1.00;;;;;;5095459;28;20492;-74
2022/01/06 04:09:45;;;;;;;1.00;0.83;;;5.60;1.00;;;;;;5095150;28;20446;-74
2022/01/06 04:12:13;;;;;;;0.60;0.10;;;5.10;1.00;;;;;;5095140;28;20983;-74
2022/01/06 04:14:40;;;;;;;0.60;0.30;;;5.60;1.00;;;;;;5095927;28;20442;-73
2022/01/06 04:17:10;;;;;;;0.50;0.20;;;5.60;1.00;;;;;;5098238;28;20547;-74
2022/01/06 04:19:37;;;;;;;0.50;0.10;;;5.60;1.00;;;;;;5096433;28;20448;-75
2022/01/06 04:22:06;;;;;;;0.50;0.20;;;5.50;1.00;;;;;;5094775;28;20438;-74
2022/01/06 04:24:35;;;;;;;0.50;0.10;;;5.50;1.00;;;;;;5093789;28;20940;-75
2022/01/06 04:27:03;;;;;;;0.50;0.10;;;5.60;1.00;;;;;;5094586;28;20477;-74
2022/01/06 04:29:31;;;;;;;0.50;0.10;;;5.60;1.00;;;;;;5094186;28;20843;-74
2022/01/06 04:31:59;;;;;;;0.60;0.40;;;5.50;1.00;;;;;;5094246;28;20449;-74
2022/01/06 04:34:28;;;;;;;0.50;0.10;;;5.50;1.00;;;;;;5094536;28;20892;-74
2022/01/06 04:36:58;;;;;;;0.87;0.70;;;5.40;1.00;;;;;;5094495;28;20432;-74
2022/01/06 04:39:26;;;;;;;0.50;0.10;;;5.40;1.00;;;;;;5094032;28;20981;-73
2022/01/06 04:41:55;;;;;;;0.50;0.10;;;5.30;1.00;;;;;;5094382;28;20449;-74
2022/01/06 04:44:22;;;;;;;0.50;0.20;;;5.30;1.00;;;;;;5094312;28;20504;-74
2022/01/06 04:46:50;;;;;;;1.00;0.87;;;5.30;1.00;;;;;;5093997;28;21287;-74
2022/01/06 04:49:18;;;;;;;0.50;0.10;;;5.30;1.00;;;;;;5094511;28;21134;-74
2022/01/06 04:51:48;;;;;;;1.37;0.87;;;5.30;1.00;;;;;;5094663;28;20445;-73
2022/01/06 04:54:16;;;;;;;0.50;0.10;;;5.30;1.00;;;;;;5094229;28;20445;-74
2022/01/06 04:56:43;;;;;;;8.43;1.03;;;5.30;1.00;;;;;;5094497;28;20469;-73
2022/01/06 04:59:11;;;;;;;0.50;0.20;;;5.20;1.00;;;;;;5093784;28;20461;-74
2022/01/06 05:01:39;;;;;;;0.77;0.40;;;5.20;1.00;;;;;;5094084;28;20441;-73
2022/01/06 05:04:08;;;;;;;1.03;0.73;;;5.10;1.00;;;;;;5094188;28;20894;-73
2022/01/06 05:06:35;;;;;;;1.17;0.80;;;5.10;1.00;;;;;;5094552;28;20990;-74
2022/01/06 05:09:04;;;;;;;0.50;0.10;;;5.10;1.00;;;;;;5096210;28;20488;-73
2022/01/06 05:11:32;;;;;;;0.50;0.10;;;5.10;1.00;;;;;;5095158;28;20819;-75
2022/01/06 05:14:00;;;;;;;0.50;0.10;;;5.10;1.00;;;;;;5094455;28;20468;-73
2022/01/06 05:16:28;;;;;;;0.60;0.40;;;5.20;1.00;;;;;;5094361;28;20448;-75
2022/01/06 05:18:56;;;;;;;4.10;1.03;;;5.20;1.00;;;;;;5093750;28;20939;-75
2022/01/06 05:21:28;;;;;;;0.50;0.10;;;5.30;1.00;;;;;;5094162;28;20446;-74
2022/01/06 05:23:56;;;;;;;0.60;0.50;;;5.30;1.00;;;;;;5093683;28;20481;-72
2022/01/06 05:26:26;;;;;;;0.60;0.30;;;5.30;1.00;;;;;;5093489;28;20532;-75
2022/01/06 05:28:54;;;;;;;0.60;0.43;;;5.30;1.00;;;;;;5093834;28;20447;-74
2022/01/06 05:31:22;;;;;;;0.50;0.30;;;5.30;1.00;;;;;;5091511;28;20461;-75
2022/01/06 05:33:49;;;;;;;4.67;4.47;;;5.30;1.00;;;;;;5093947;28;20466;-76
2022/01/06 05:36:17;;;;;;;0.90;0.63;;;5.30;1.00;;;;;;5093271;28;20926;-75
2022/01/06 05:38:45;;;;;;;0.87;0.73;;;5.30;1.00;;;;;;5096361;28;20468;-73
2022/01/06 05:41:13;;;;;;;9.63;2.53;;;5.30;1.00;;;;;;5094413;28;20445;-75
2022/01/06 05:43:42;;;;;;;0.60;0.40;;;5.30;1.00;;;;;;5093323;28;20480;-74
2022/01/06 05:46:10;;;;;;;0.50;0.30;;;5.30;1.00;;;;;;5093282;28;20438;-77
2022/01/06 05:48:38;;;;;;;0.50;0.10;;;5.30;1.00;;;;;;5093357;28;20561;-75
2022/01/06 05:51:06;;;;;;;0.50;0.10;;;5.30;1.00;;;;;;5093132;28;20444;-73
2022/01/06 05:53:34;;;;;;;0.67;0.67;;;5.20;1.00;;;;;;5093465;28;20485;-74
2022/01/06 05:56:01;;;;;;;0.60;0.50;;;5.20;1.00;;;;;;5093289;28;20445;-74
2022/01/06 05:58:29;;;;;;;2.20;1.40;;;5.10;1.00;;;;;;5093148;28;20434;-73
2022/01/06 06:00:59;;;;;;;2.10;1.57;;;5.00;1.00;;;;;;5093698;28;20449;-74
2022/01/06 06:03:28;;;;;;;1.00;0.50;;;5.00;1.00;;;;;;5094219;28;20544;-74
2022/01/06 06:05:56;;;;;;;0.50;0.10;;;5.00;1.00;;;;;;5093666;28;20837;-74
2022/01/06 06:08:24;;;;;;;0.50;0.10;;;5.00;1.00;;;;;;5093157;28;20479;-73
2022/01/06 06:10:51;;;;;;;31.27;2.17;;;4.90;1.00;;;;;;5093119;28;20468;-74
2022/01/06 06:13:19;;;;;;;49.17;1.70;;;4.90;1.00;;;;;;5092330;28;20978;-74
2022/01/06 06:15:47;;;;;;;0.50;0.10;;;4.90;1.00;;;;;;5096440;28;20437;-73
2022/01/06 06:18:16;;;;;;;0.50;0.10;;;4.90;1.00;;;;;;5104506;28;20450;-74
2022/01/06 06:20:44;;;;;;;0.50;0.10;;;4.90;1.00;;;;;;5098297;28;20453;-75
2022/01/06 06:23:12;;;;;;;0.50;0.20;;;4.90;1.00;;;;;;5098378;28;20579;-73
2022/01/06 06:25:40;;;;;;;0.50;0.10;;;4.90;1.00;;;;;;5094888;28;20923;-73
2022/01/06 06:28:08;;;;;;;0.50;0.20;;;4.90;1.00;;;;;;5101525;28;20476;-74
2022/01/06 06:30:35;;;;;;;0.50;0.10;;;4.90;1.00;;;;;;5096095;28;20483;-74
2022/01/06 06:33:03;;;;;;;0.50;0.10;;;4.90;1.00;;;;;;5092966;28;20476;-75
2022/01/06 06:35:33;;;;;;;0.50;0.10;;;4.90;1.00;;;;;;5093012;28;20455;-74
2022/01/06 06:38:00;;;;;;;0.63;0.60;;;4.90;1.00;;;;;;5093056;28;21002;-74
2022/01/06 06:40:28;;;;;;;0.60;0.40;;;4.90;1.00;;;;;;5093169;28;20450;-73
2022/01/06 06:42:56;;;;;;;0.50;0.10;;;4.90;1.00;;;;;;5093603;28;20572;-73
2022/01/06 06:45:24;;;;;;;5.50;1.90;;;4.80;1.00;;;;;;5091870;28;20445;-73
2022/01/06 06:47:52;;;;;;;1.10;0.83;;;4.80;1.00;;;;;;5071733;28;20488;-73
2022/01/06 06:50:21;;;;;;;0.50;0.20;;;4.80;1.00;;;;;;5072058;28;20446;-73
2022/01/06 06:52:50;;;;;;;0.50;0.10;;;4.70;1.00;;;;;;5072026;28;20483;-74
2022/01/06 06:55:18;;;;;;;0.60;0.47;;;4.70;1.00;;;;;;5072678;28;20450;-72
2022/01/06 06:57:46;;;;;;;0.50;0.10;;;4.70;1.00;;;;;;5080240;28;20438;-74
2022/01/06 07:00:15;;;;;;;0.50;0.23;;;4.60;1.00;;;;;;5093037;28;20441;-75
2022/01/06 07:02:43;;;;;;;2.43;1.70;;;4.60;1.00;;;;;;5092979;28;20457;-73
2022/01/06 07:05:11;;;;;;;7.57;1.40;;;4.60;1.00;;;;;;5093817;28;20437;-74
2022/01/06 07:07:39;;;;;;;1.00;0.83;;;4.70;1.00;;;;;;5092891;28;20847;-73
2022/01/06 07:10:09;;;;;;;0.60;0.27;;;4.60;1.00;;;;;;5094300;28;20441;-74
2022/01/06 07:12:38;;;;;;;0.50;0.20;;;4.60;1.00;;;;;;5098563;28;20453;-74
2022/01/06 07:15:08;;;;;;;0.73;0.50;;;4.60;1.00;;;;;;5094223;28;20445;-74
2022/01/06 07:17:35;;;;;;;1.00;0.93;;;4.60;1.00;;;;;;5091938;28;20448;-74
2022/01/06 07:20:04;;;;;;;0.70;0.50;;;4.60;1.00;;;;;;5092420;28;20437;-75
2022/01/06 07:22:32;;;;;;;0.50;0.10;;;4.60;1.00;;;;;;5092202;28;20483;-73
2022/01/06 07:25:01;;;;;;;0.50;0.10;;;4.60;1.00;;;;;;5092680;28;20438;-75
2022/01/06 07:27:30;;;;;;;0.50;0.10;;;4.60;1.00;;;;;;5089515;28;20433;-74
2022/01/06 07:29:58;;;;;;;0.50;0.10;;;4.60;1.00;;;;;;5092278;28;20463;-75
2022/01/06 07:32:26;;;;;;;17.33;2.47;;;4.60;1.00;;;;;;5093741;28;20449;-74
2022/01/06 07:34:57;;;;;;;0.50;0.10;;;4.60;1.00;;;;;;5097858;28;20441;-74
2022/01/06 07:37:24;;;;;;;0.50;0.10;;;4.60;1.00;;;;;;5097968;28;20443;-75
2022/01/06 07:39:53;;;;;;;0.50;0.10;;;4.60;1.00;;;;;;5091725;28;20437;-74
2022/01/06 07:42:21;;;;;;;0.50;0.20;;;4.70;1.00;;;;;;5091986;28;20457;-74
2022/01/06 07:44:50;;;;;;;0.50;0.10;;;4.70;1.00;;;;;;5099906;28;20754;-75
2022/01/06 07:47:19;;;;;;;0.70;0.60;;;4.70;1.00;;;;;;5091682;28;20432;-74
2022/01/06 07:49:47;;;;;;;0.50;0.30;;;4.80;1.00;;;;;;5091121;28;20474;-73
2022/01/06 07:52:14;;;;;;;0.50;0.10;;;4.90;1.00;;;;;;5092749;28;21010;-74
2022/01/06 07:54:42;;;;;;;0.50;0.10;;;4.90;1.00;;;;;;5092778;28;20447;-73
2022/01/06 07:57:10;;;;;;;0.50;0.10;;;5.00;1.00;;;;;;5092516;28;20449;-74
2022/01/06 07:59:38;;;;;;;0.50;0.10;;;5.00;1.00;;;;;;5095534;28;20445;-74
2022/01/06 08:02:08;;;;;;;0.50;0.10;;;5.00;1.00;;;;;;5095786;28;20441;-74
2022/01/06 08:04:37;;;;;;;4.07;1.10;;;5.00;1.00;;;;;;5075783;28;20911;-76
2022/01/06 08:07:06;;;;;;;0.50;0.10;;;5.00;1.00;;;;;;5081972;28;20444;-74
2022/01/06 08:09:34;;;;;;;0.50;0.10;;;5.00;1.00;;;;;;5095420;28;21010;-74
2022/01/06 08:12:02;;;;;;;0.50;0.10;;;5.00;1.00;;;;;;5095797;28;20846;-75
2022/01/06 08:14:31;;;;;;;0.50;0.10;;;5.00;1.00;;;;;;5105531;28;20470;-75
2022/01/06 08:17:00;;;;;;;0.50;0.10;;;5.00;1.00;;;;;;5097254;28;20566;-74
2022/01/06 08:19:30;;;;;;;0.60;0.30;;;5.10;1.00;;;;;;5096728;28;20833;-73
2022/01/06 08:21:57;;;;;;;0.50;0.20;;;5.20;1.00;;;;;;5096603;28;20437;-74
2022/01/06 08:24:25;;;;;;;0.50;0.10;;;5.20;1.00;;;;;;5097926;28;20452;-74
2022/01/06 08:26:55;;;;;;;0.50;0.10;;;5.20;1.00;;;;;;5102475;28;20443;-75
2022/01/06 08:29:22;;;;;;;0.50;0.10;;;5.30;1.00;;;;;;5103374;28;20996;-75
2022/01/06 08:31:50;;;;;;;0.53;0.27;;;5.20;1.00;;;;;;5096835;28;20923;-75
2022/01/06 08:34:18;;;;;;;0.57;0.30;;;5.20;1.00;;;;;;5102079;28;20552;-74
2022/01/06 08:36:52;;;;;;;0.50;0.10;;;5.20;1.00;;;;;;5096627;28;20433;-74
2022/01/06 08:39:20;;;;;;;0.60;0.30;;;5.20;1.00;;;;;;5096493;28;20439;-75
2022/01/06 08:41:48;;;;;;;0.50;0.20;;;5.10;1.00;;;;;;5103301;28;20453;-74
2022/01/06 08:44:16;;;;;;;0.50;0.20;;;5.10;1.00;;;;;;5112408;28;20938;-74
2022/01/06 08:46:45;;;;;;;0.57;0.27;;;5.10;1.00;;;;;;5119970;28;20425;-74
2022/01/06 08:49:15;;;;;;;0.50;0.10;;;5.10;1.00;;;;;;5118771;28;20531;-74
2022/01/06 08:51:44;;;;;;;2.93;2.63;;;5.10;1.00;;;;;;5115869;28;20440;-74
2022/01/06 08:54:13;;;;;;;2.50;1.70;;;5.10;1.00;;;;;;5116126;28;20551;-74
2022/01/06 08:56:40;;;;;;;0.60;0.33;;;5.00;1.00;;;;;;5094712;28;20930;-74
2022/01/06 08:59:08;;;;;;;0.50;0.20;;;5.00;1.00;;;;;;5095391;28;20460;-73
2022/01/06 09:01:36;;;;;;;0.90;0.73;;;5.00;1.00;;;;;;5084763;28;20442;-72
2022/01/06 09:04:05;;;;;;;1.27;1.17;;;5.00;1.00;;;;;;5089673;28;20918;-74
2022/01/06 09:06:33;;;;;;;0.50;0.10;;;5.00;1.00;;;;;;5094481;28;20450;-75
2022/01/06 09:09:00;;;;;;;1.17;0.70;;;5.00;1.00;;;;;;5091473;28;20485;-76
2022/01/06 09:11:30;;;;;;;0.50;0.30;;;5.10;1.00;;;;;;5086661;28;20777;-74
2022/01/06 09:13:58;;;;;;;0.50;0.10;;;5.10;1.00;;;;;;5088507;28;20492;-75
2022/01/06 09:16:26;;;;;;;0.50;0.27;;;5.10;1.00;;;;;;5093070;28;20442;-75
2022/01/06 09:18:54;;;;;;;0.50;0.10;;;5.10;1.00;;;;;;5084863;28;20433;-74
2022/01/06 09:21:24;;;;;;;0.50;0.20;;;5.10;1.00;;;;;;5095173;28;20443;-72
2022/01/06 09:23:52;;;;;;;0.80;0.73;;;5.20;1.00;;;;;;5093395;28;20569;-74
2022/01/06 09:26:21;;;;;;;1.00;0.90;;;5.30;1.00;;;;;;5084678;28;20469;-74
2022/01/06 09:28:50;;;;;;;0.50;0.20;;;5.30;1.00;;;;;;5088935;28;20459;-76
2022/01/06 09:31:18;;;;;;;0.50;0.10;;;5.40;1.00;;;;;;5109988;22;21038;-76
2022/01/06 09:33:46;;;;;;;0.50;0.10;;;5.40;1.00;;;;;;5102859;28;20445;-80
2022/01/06 09:36:14;;;;;;;1.73;1.37;;;5.40;1.00;;;;;;5115177;28;20438;-78
2022/01/06 09:38:45;;;;;;;0.50;0.20;;;5.50;1.00;;;;;;5107965;28;20866;-79
2022/01/06 09:41:14;;;;;;;0.50;0.20;;;5.50;1.00;;;;;;5095344;28;20473;-80
2022/01/06 09:43:43;;;;;;;0.50;0.20;;;5.60;1.00;;;;;;5107759;28;20439;-79
2022/01/06 09:46:20;;;;;;;0.50;0.10;;;5.70;1.00;;;;;;5117577;28;20449;-80
2022/01/06 09:48:49;;;;;;;0.50;0.10;;;6.30;1.00;;;;;;5118338;27;20505;-80
2022/01/06 09:51:20;;;;;;;1.47;1.20;;;5.80;1.00;;;;;;5127555;27;20607;-81
2022/01/06 09:53:49;;;;;;;0.50;0.10;;;5.80;1.00;;;;;;5128065;27;20447;-81
2022/01/06 09:56:18;;;;;;;0.50;0.10;;;5.80;1.00;;;;;;5121830;27;20470;-81
2022/01/06 09:58:47;;;;;;;0.50;0.10;;;;;;;;;;5132077;27;20480;-81
2022/01/06 10:01:16;;;;;;;0.50;0.10;;;6.10;1.00;;;;;;5125139;27;20469;-80
2022/01/06 10:03:48;;;;;;;0.60;0.33;;;6.10;1.00;;;;;;5121228;28;20540;-79
2022/01/06 10:06:17;;;;;;;13.83;1.20;;;6.10;1.00;;;;;;5118853;28;20528;-83
2022/01/06 10:08:51;;;;;;;0.50;0.10;;;6.00;1.00;;;;;;5124402;28;20454;-83
2022/01/06 10:11:22;;;;;;;8.60;1.20;;;6.00;1.00;;;;;;5125706;28;20484;-85
2022/01/06 10:13:56;;;;;;;3.13;0.30;;;6.00;1.00;;;;;;5132903;27;20460;-82
2022/01/06 10:16:28;;;;;;;0.50;0.10;;;5.90;1.00;;;;;;5137528;27;20527;-82
2022/01/06 10:19:03;;;;;;;0.97;0.53;;;5.90;1.00;;;;;;5142588;27;20540;-81
2022/01/06 10:21:38;;;;;;;1.33;1.17;;;6.00;1.00;;;;;;5145303;27;20469;-82
2022/01/06 10:24:09;;;;;;;0.50;0.10;;;;;;;;;;5130825;27;20461;-83
2022/01/06 10:26:38;;;;;;;0.90;0.40;;;;;;;;;;5123521;28;20467;-80
2022/01/06 10:29:08;;;;;;;0.50;0.10;;;6.20;1.00;;;;;;5116238;27;20449;-84
2022/01/06 10:31:38;;;;;;;0.50;0.10;;;6.30;1.00;;;;;;5139823;27;20473;-80
2022/01/06 10:34:09;;;;;;;0.50;0.20;;;6.40;1.00;;;;;;5125489;28;20465;-83
2022/01/06 10:36:38;;;;;;;0.60;0.50;;;6.40;1.00;;;;;;5128557;28;20453;-82
2022/01/06 10:39:08;;;;;;;0.77;0.63;;;6.30;1.00;;;;;;5127712;28;20439;-84
2022/01/06 10:41:38;;;;;;;1.83;1.40;;;6.20;1.00;;;;;;5135916;28;20461;-82
2022/01/06 10:44:09;;;;;;;0.70;0.50;;;6.20;1.00;;;;;;5126663;28;20707;-81
2022/01/06 10:46:42;;;;;;;1.50;0.83;;;6.20;1.00;;;;;;5124173;28;20416;-79
2022/01/06 10:49:22;;;;;;;0.50;0.10;;;;;;;;;;5126093;28;20418;-84
2022/01/06 10:51:51;;;;;;;0.50;0.10;;;6.30;1.00;;;;;;5124109;28;20433;-83
2022/01/06 10:54:21;;;;;;;0.60;0.43;;;6.40;1.00;;;;;;5122040;28;20474;-83
2022/01/06 10:56:58;;;;;;;0.50;0.20;;;6.40;1.00;;;;;;5110565;28;20452;-83
2022/01/06 10:59:26;;;;;;;0.50;0.10;;;6.50;1.00;;;;;;5108409;28;20528;-83
2022/01/06 11:01:56;;;;;;;0.50;0.10;;;;;;;;;;5123997;28;20545;-82
2022/01/06 11:04:25;;;;;;;0.50;0.10;;;;;;;;;;5112311;28;20453;-83
2022/01/06 11:06:53;;;;;;;0.50;0.10;;;6.60;1.00;;;;;;5124770;28;20519;-83
2022/01/06 11:09:21;;;;;;;0.50;0.10;;;6.70;1.00;;;;;;5129483;28;20443;-82
2022/01/06 11:14:37;;;;;;;0.50;0.10;;;6.80;1.00;;;;;;5122407;28;20560;-83
2022/01/06 11:17:07;;;;;;;0.50;0.10;;;;;;;;;;5116605;28;20462;-83
2022/01/06 11:19:35;;;;;;;0.50;0.20;;;;;;;;;;5133181;28;20469;-82
2022/01/06 11:22:06;;;;;;;0.50;0.10;;;6.80;1.00;;;;;;5135719;28;20436;-82
2022/01/06 11:24:34;;;;;;;0.60;0.10;;;6.90;1.00;;;;;;5144329;28;20456;-83
2022/01/06 11:27:04;;;;;;;0.50;0.10;;;6.80;1.00;;;;;;5132095;28;20432;-82
2022/01/06 11:29:35;;;;;;;8.43;2.63;;;6.90;1.00;;;;;;5119789;28;20914;-80
2022/01/06 11:32:17;;;;;;;0.50;0.30;;;7.00;1.00;;;;;;5102543;28;21118;-78
2022/01/06 11:34:45;;;;;;;0.90;0.47;;;;;;;;;;5122948;28;20435;-81
2022/01/06 11:37:15;;;;;;;0.50;0.10;;;6.90;1.00;;;;;;5105626;28;20442;-81
2022/01/06 11:39:44;;;;;;;0.60;0.40;;;7.00;1.00;;;;;;5112042;28;20450;-82
2022/01/06 11:42:16;;;;;;;0.50;0.10;;;6.90;1.00;;;;;;5114326;28;20466;-82
2022/01/06 11:44:52;;;;;;;0.50;0.10;;;6.90;1.00;;;;;;5139538;28;20473;-80
2022/01/06 11:47:34;;;;;;;2.63;1.93;;;6.90;1.00;;;;;;5138215;28;20445;-82
2022/01/06 11:50:18;;;;;;;2.27;1.30;;;6.80;1.00;;;;;;5137712;28;20659;-82
2022/01/06 11:52:54;;;;;;;0.50;0.10;;;6.80;1.00;;;;;;5138292;27;20445;-82
2022/01/06 11:55:24;;;;;;;0.50;0.10;;;6.70;1.00;;;;;;5153699;27;20464;-82
2022/01/06 11:57:55;;;;;;;0.60;0.20;;;6.80;1.00;;;;;;5154349;27;20450;-82
2022/01/06 12:00:25;;;;;;;0.60;0.10;;;6.60;1.00;;;;;;5157208;27;20450;-82
2022/01/06 12:03:01;;;;;;;0.50;0.10;;;6.50;1.00;;;;;;5142852;27;20438;-83
2022/01/06 12:05:42;;;;;;;0.50;0.10;;;6.60;1.00;;;;;;5127832;28;20411;-81
2022/01/06 12:08:14;;;;;;;0.50;0.10;;;6.60;1.00;;;;;;5126416;28;20447;-81
2022/01/06 12:10:43;;;;;;;0.50;0.10;;;6.70;1.00;;;;;;5124696;28;20492;-80
2022/01/06 12:13:12;;;;;;;0.50;0.10;;;6.80;1.00;;;;;;5122949;28;20476;-80
2022/01/06 12:15:48;;;;;;;0.60;0.10;;;6.90;1.00;;;;;;5112770;28;20445;-82
2022/01/06 12:18:22;;;;;;;0.50;0.10;;;7.00;1.00;;;;;;5105736;28;20507;-83
2022/01/06 12:20:51;;;;;;;0.60;0.10;;;;;;;;;;5105967;28;20494;-84
2022/01/06 12:23:20;;;;;;;0.57;0.13;;;7.20;1.00;;;;;;5105891;28;20446;-83
2022/01/06 12:25:55;;;;;;;0.50;0.10;;;7.30;1.00;;;;;;5106042;28;20861;-81
2022/01/06 12:28:24;;;;;;;0.50;0.10;;;7.30;1.00;;;;;;5117633;28;20815;-84
2022/01/06 12:30:56;;;;;;;0.60;0.10;;;7.40;1.00;;;;;;5122771;28;20504;-82
2022/01/06 12:33:26;;;;;;;4.63;0.70;;;7.40;1.00;;;;;;5119078;28;20437;-83
2022/01/06 12:35:57;;;;;;;0.60;0.10;;;7.50;1.00;;;;;;5108043;28;20772;-81
2022/01/06 12:38:27;;;;;;;0.60;0.10;;;7.50;1.00;;;;;;5110437;28;20521;-81
2022/01/06 12:40:56;;;;;;;0.60;0.40;;;;;;;;;;5120877;28;20498;-81
2022/01/06 12:43:36;;;;;;;0.67;0.33;;;7.50;1.00;;;;;;5108799;28;20455;-80
2022/01/06 12:46:06;;;;;;;0.60;0.20;;;7.40;1.00;;;;;;5114561;28;20538;-82
2022/01/06 12:48:38;;;;;;;0.60;0.10;;;7.50;1.00;;;;;;5114095;28;20542;-82
2022/01/06 12:51:07;;;;;;;1.13;0.83;;;7.50;1.00;;;;;;5120358;28;20485;-79
2022/01/06 12:53:37;;;;;;;0.60;0.10;;;7.40;1.00;;;;;;5124516;28;20458;-81
2022/01/06 12:56:06;;;;;;;0.60;0.20;;;7.30;1.00;;;;;;5129378;28;20498;-80
2022/01/06 12:58:35;;;;;;;0.60;0.10;;;7.40;1.00;;;;;;5123248;28;20832;-81
2022/01/06 13:01:05;;;;;;;1.63;1.47;;;7.50;1.00;;;;;;5121801;28;20500;-79
2022/01/06 13:03:38;;;;;;;0.60;0.10;;;7.50;1.00;;;;;;5121977;28;20433;-79
2022/01/06 13:06:07;;;;;;;0.60;0.10;;;7.60;1.00;;;;;;5121031;28;20438;-81
2022/01/06 13:09:02;;;;;;;0.60;0.20;;;;;;;;;;5124361;28;20446;-80
2022/01/06 13:11:44;;;;;;;0.60;0.10;;;;;;;;;;5124333;28;20493;-82
2022/01/06 13:14:48;;;;;;;0.60;0.10;;;7.70;99.90;;;;;;5125264;28;20462;-80
2022/01/06 13:17:19;;;;;;;4.10;0.70;;;7.80;99.90;;;;;;5124050;28;20493;-81
2022/01/06 13:19:58;;;;;;;0.80;0.77;;;7.40;99.90;;;;;;5126679;28;20461;-80
2022/01/06 13:22:48;;;;;;;0.60;0.20;;;7.40;1.00;;;;;;5123449;28;20429;-81
2022/01/06 13:25:17;;;;;;;0.60;0.10;;;7.40;1.00;;;;;;5122502;28;20554;-83
2022/01/06 13:27:57;;;;;;;4.70;4.23;;;7.50;1.00;;;;;;5121475;28;20492;-81
2022/01/06 13:30:35;;;;;;;0.60;0.10;;;7.50;1.00;;;;;;5122319;28;20513;-81
2022/01/06 13:33:05;;;;;;;1.00;0.40;;;7.30;1.00;;;;;;5109768;28;20551;-80
2022/01/06 13:35:45;;;;;;;0.60;0.10;;;7.20;1.00;;;;;;5116624;28;20903;-82